Time;durP1;ratioP1;P1;durP2;ratioP2;P2;SDS_P1;SDS_P2;PMS_P1;PMS_P2;Temp;Humidity;BMP_temperature;BMP_pressure;BME280_temperature;BME280_humidity;BME280_pressure;Samples;Min_cycle;Max_cycle;Signal;HPM_P1;HPM_P2
2021/03/29 00:00:50;;;;;;;16.23;9.83;;;10.40;98.30;;;;;;4120495;28;20546;-84
2021/03/29 00:02:52;;;;;;;8.83;6.33;;;10.40;98.30;;;;;;4122129;28;20503;-84
2021/03/29 00:04:54;;;;;;;12.50;7.37;;;10.50;98.30;;;;;;4119063;28;20899;-84
2021/03/29 00:07:01;;;;;;;14.90;7.47;;;10.50;98.30;;;;;;4121082;28;21216;-83
2021/03/29 00:09:04;;;;;;;14.10;6.60;;;10.50;98.30;;;;;;4124684;28;20582;-84
2021/03/29 00:11:08;;;;;;;11.03;7.47;;;10.50;98.30;;;;;;4127614;28;20483;-83
2021/03/29 00:13:11;;;;;;;12.30;6.80;;;10.50;98.30;;;;;;4129578;28;20474;-84
2021/03/29 00:15:17;;;;;;;15.20;6.57;;;10.50;98.30;;;;;;4130166;28;20942;-85
2021/03/29 00:17:20;;;;;;;13.47;6.70;;;10.50;98.30;;;;;;4117280;28;20483;-85
2021/03/29 00:19:23;;;;;;;10.50;6.30;;;10.40;98.30;;;;;;4124673;28;20491;-84
2021/03/29 00:21:25;;;;;;;11.13;7.40;;;10.50;98.30;;;;;;4119382;28;20499;-84
2021/03/29 00:23:28;;;;;;;14.80;6.37;;;10.50;98.30;;;;;;4120060;28;20575;-83
2021/03/29 00:25:31;;;;;;;9.23;5.70;;;10.50;98.30;;;;;;4123553;28;20495;-83
2021/03/29 00:27:33;;;;;;;26.53;8.50;;;10.50;98.30;;;;;;4115727;28;20496;-83
2021/03/29 00:29:35;;;;;;;12.27;6.50;;;10.50;98.30;;;;;;4119792;28;20499;-83
2021/03/29 00:31:37;;;;;;;8.77;5.00;;;10.50;98.30;;;;;;4123453;28;21133;-83
2021/03/29 00:33:42;;;;;;;11.17;5.90;;;10.50;98.30;;;;;;4122837;28;20492;-84
2021/03/29 00:35:48;;;;;;;20.43;7.33;;;10.50;98.30;;;;;;4122100;28;20480;-83
2021/03/29 00:37:51;;;;;;;10.60;6.97;;;10.50;98.30;;;;;;4123220;28;20488;-83
2021/03/29 00:39:55;;;;;;;12.17;6.17;;;10.50;98.30;;;;;;4121497;28;20497;-83
2021/03/29 00:41:58;;;;;;;8.43;4.83;;;10.50;98.30;;;;;;4118278;28;20492;-83
2021/03/29 00:44:00;;;;;;;12.03;5.87;;;10.50;98.30;;;;;;4118858;28;20500;-83
2021/03/29 00:46:06;;;;;;;9.27;5.93;;;10.50;98.30;;;;;;4121243;28;20490;-83
2021/03/29 00:48:09;;;;;;;7.20;4.80;;;10.50;98.30;;;;;;4117641;28;20499;-84
2021/03/29 00:50:13;;;;;;;9.20;5.00;;;10.50;98.30;;;;;;4118086;28;20492;-83
2021/03/29 00:52:16;;;;;;;10.43;5.40;;;10.50;98.30;;;;;;4120694;28;20491;-82
2021/03/29 00:54:18;;;;;;;11.67;4.70;;;10.50;98.30;;;;;;4118422;28;20496;-83
2021/03/29 00:56:22;;;;;;;10.87;5.77;;;10.50;98.30;;;;;;4122457;28;20519;-83
2021/03/29 00:58:26;;;;;;;11.30;5.73;;;10.50;98.30;;;;;;4120659;28;20462;-83
2021/03/29 01:00:34;;;;;;;9.00;4.60;;;10.50;98.30;;;;;;4118899;28;20498;-83
2021/03/29 01:02:38;;;;;;;7.60;5.07;;;10.50;98.30;;;;;;4116281;28;20567;-83
2021/03/29 01:04:40;;;;;;;16.23;5.30;;;10.50;98.30;;;;;;4114378;28;20499;-83
2021/03/29 01:07:16;;;;;;;10.90;5.40;;;10.50;98.30;;;;;;4118175;28;20482;-84
2021/03/29 01:09:20;;;;;;;11.00;4.50;;;10.50;98.30;;;;;;4117090;28;20491;-83
2021/03/29 01:11:26;;;;;;;14.30;6.33;;;10.50;98.30;;;;;;4122580;28;20486;-83
2021/03/29 01:13:29;;;;;;;8.23;5.20;;;10.50;98.30;;;;;;4129829;28;20514;-83
2021/03/29 01:15:32;;;;;;;10.07;5.00;;;10.50;98.30;;;;;;4118377;28;20498;-84
2021/03/29 01:17:36;;;;;;;10.03;4.97;;;10.50;98.30;;;;;;4117758;28;20834;-83
2021/03/29 01:19:51;;;;;;;8.10;5.23;;;10.50;98.30;;;;;;4122433;28;20949;-83
2021/03/29 01:22:00;;;;;;;5.83;4.07;;;10.50;98.30;;;;;;4120126;28;20487;-84
2021/03/29 01:24:10;;;;;;;10.07;4.40;;;10.50;98.30;;;;;;4127118;28;20554;-83
2021/03/29 01:26:28;;;;;;;10.57;5.47;;;10.50;98.30;;;;;;4130214;28;20506;-85
2021/03/29 01:28:31;;;;;;;8.03;4.60;;;10.50;98.30;;;;;;4130405;28;20550;-83
2021/03/29 01:30:40;;;;;;;12.93;4.70;;;10.50;98.30;;;;;;4129513;28;21078;-83
2021/03/29 01:32:45;;;;;;;10.67;5.33;;;10.50;98.30;;;;;;4129963;28;20511;-83
2021/03/29 01:34:48;;;;;;;7.20;5.10;;;10.50;98.30;;;;;;4127312;28;20487;-83
2021/03/29 01:36:50;;;;;;;8.17;5.03;;;10.50;98.30;;;;;;4131621;28;20526;-83
2021/03/29 01:38:54;;;;;;;7.43;4.70;;;10.50;98.30;;;;;;4131976;28;20812;-83
2021/03/29 01:40:58;;;;;;;10.30;4.90;;;10.60;98.30;;;;;;4130164;28;20532;-84
2021/03/29 01:43:01;;;;;;;11.83;5.43;;;10.50;98.30;;;;;;4130525;28;20483;-83
2021/03/29 01:45:05;;;;;;;7.30;4.50;;;10.50;98.30;;;;;;4131488;28;20527;-83
2021/03/29 01:47:15;;;;;;;7.10;5.10;;;10.50;98.30;;;;;;4130257;28;21057;-83
2021/03/29 01:49:18;;;;;;;12.30;7.50;;;10.50;98.30;;;;;;4130463;28;20514;-83
2021/03/29 01:51:21;;;;;;;9.20;4.60;;;10.50;98.30;;;;;;4131471;28;20484;-84
2021/03/29 01:53:25;;;;;;;10.87;5.13;;;10.60;98.30;;;;;;4129104;28;20571;-84
2021/03/29 01:55:29;;;;;;;8.03;4.53;;;10.60;98.30;;;;;;4129793;28;20491;-84
2021/03/29 01:57:32;;;;;;;8.70;5.50;;;10.60;98.30;;;;;;4131843;28;20557;-84
2021/03/29 01:59:35;;;;;;;8.80;5.23;;;10.60;98.30;;;;;;4129542;28;20586;-84
2021/03/29 02:01:37;;;;;;;19.50;5.83;;;10.50;98.30;;;;;;4131371;28;20492;-84
2021/03/29 02:03:41;;;;;;;7.70;5.47;;;10.60;98.30;;;;;;4130584;28;20487;-84
2021/03/29 02:05:46;;;;;;;7.60;4.90;;;10.60;98.30;;;;;;4131402;28;20496;-83
2021/03/29 02:07:50;;;;;;;8.00;4.73;;;10.60;98.30;;;;;;4131836;28;20852;-84
2021/03/29 02:09:53;;;;;;;8.77;5.13;;;10.60;98.30;;;;;;4129600;28;20495;-83
2021/03/29 02:11:56;;;;;;;11.13;5.53;;;10.60;98.30;;;;;;4128337;28;21131;-84
2021/03/29 02:14:00;;;;;;;17.70;6.00;;;10.60;98.30;;;;;;4130237;28;20522;-84
2021/03/29 02:16:06;;;;;;;10.67;4.87;;;10.60;98.30;;;;;;4132240;28;21147;-83
2021/03/29 02:18:12;;;;;;;12.47;5.60;;;10.60;98.30;;;;;;4131591;28;20905;-84
2021/03/29 02:20:17;;;;;;;8.43;6.00;;;10.60;98.30;;;;;;4132256;28;20483;-83
2021/03/29 02:22:19;;;;;;;12.43;5.40;;;10.70;98.30;;;;;;4130709;28;21004;-83
2021/03/29 02:24:22;;;;;;;8.83;5.77;;;10.60;98.30;;;;;;4131294;28;20488;-83
2021/03/29 02:26:27;;;;;;;7.37;5.30;;;10.60;98.30;;;;;;4132522;28;20484;-83
2021/03/29 02:28:29;;;;;;;8.83;5.37;;;10.60;98.30;;;;;;4125323;28;20491;-83
2021/03/29 02:30:35;;;;;;;9.30;5.77;;;10.60;98.30;;;;;;4122192;28;20491;-83
2021/03/29 02:32:40;;;;;;;8.57;5.13;;;10.60;98.30;;;;;;4118365;28;20484;-83
2021/03/29 02:34:43;;;;;;;11.17;5.83;;;10.60;98.30;;;;;;4125182;28;21026;-84
2021/03/29 02:36:46;;;;;;;11.77;6.40;;;10.60;98.30;;;;;;4119834;28;20885;-83
2021/03/29 02:38:48;;;;;;;7.67;5.83;;;10.60;98.30;;;;;;4123408;28;20493;-84
2021/03/29 02:40:52;;;;;;;10.23;5.13;;;10.60;98.30;;;;;;4119012;28;20496;-83
2021/03/29 02:42:56;;;;;;;9.30;5.40;;;10.60;98.30;;;;;;4122814;28;20932;-83
2021/03/29 02:44:59;;;;;;;7.83;5.70;;;10.60;98.30;;;;;;4124369;28;21068;-83
2021/03/29 02:47:03;;;;;;;11.60;5.70;;;10.60;98.30;;;;;;4121187;28;20495;-83
2021/03/29 02:49:07;;;;;;;10.50;5.47;;;10.60;98.30;;;;;;4120505;28;20483;-83
2021/03/29 02:51:11;;;;;;;11.30;5.70;;;10.70;98.30;;;;;;4121884;28;20536;-83
2021/03/29 02:53:15;;;;;;;8.00;5.30;;;10.70;98.30;;;;;;4117712;28;20986;-84
2021/03/29 02:55:20;;;;;;;8.00;5.00;;;10.70;98.30;;;;;;4121261;28;20595;-83
2021/03/29 02:57:22;;;;;;;11.40;5.37;;;10.70;98.30;;;;;;4121783;28;20492;-84
2021/03/29 02:59:26;;;;;;;15.17;6.10;;;10.70;98.30;;;;;;4123089;28;20497;-83
2021/03/29 03:01:31;;;;;;;8.50;5.13;;;10.70;98.30;;;;;;4123839;28;20502;-83
2021/03/29 03:03:33;;;;;;;13.73;7.33;;;10.70;98.30;;;;;;4120601;28;20795;-83
2021/03/29 03:05:38;;;;;;;11.70;5.50;;;10.70;98.30;;;;;;4120438;28;20495;-83
2021/03/29 03:07:41;;;;;;;7.07;5.00;;;10.70;98.30;;;;;;4120698;28;20563;-83
2021/03/29 03:09:43;;;;;;;9.40;6.10;;;10.70;98.30;;;;;;4122616;28;20496;-82
2021/03/29 03:11:46;;;;;;;9.50;5.07;;;10.70;98.30;;;;;;4120417;28;20483;-83
2021/03/29 03:13:49;;;;;;;10.20;5.83;;;10.70;98.30;;;;;;4119153;28;20573;-83
2021/03/29 03:15:51;;;;;;;8.70;5.93;;;10.70;98.30;;;;;;4120386;28;21175;-82
2021/03/29 03:17:54;;;;;;;10.13;5.77;;;10.70;98.30;;;;;;4117050;28;20480;-83
2021/03/29 03:19:56;;;;;;;10.73;5.10;;;10.70;98.30;;;;;;4117015;28;20494;-83
2021/03/29 03:21:59;;;;;;;8.10;5.20;;;10.70;98.30;;;;;;4117771;28;20487;-83
2021/03/29 03:24:02;;;;;;;11.80;6.20;;;10.70;98.30;;;;;;4118675;28;20494;-83
2021/03/29 03:26:03;;;;;;;7.83;5.60;;;10.70;98.30;;;;;;4121149;28;20500;-83
2021/03/29 03:28:07;;;;;;;10.87;6.30;;;10.70;98.30;;;;;;4114807;28;20487;-83
2021/03/29 03:30:15;;;;;;;11.97;5.73;;;10.70;98.30;;;;;;4121089;28;20501;-83
2021/03/29 03:32:17;;;;;;;11.33;5.30;;;10.70;98.30;;;;;;4114385;28;20487;-83
2021/03/29 03:34:19;;;;;;;9.73;5.47;;;10.70;98.30;;;;;;4121149;28;20495;-83
2021/03/29 03:36:23;;;;;;;8.40;5.97;;;10.70;98.30;;;;;;4117209;28;20519;-84
2021/03/29 03:38:29;;;;;;;7.53;5.37;;;10.60;98.30;;;;;;4111507;28;20494;-83
2021/03/29 03:40:31;;;;;;;11.80;6.03;;;10.60;98.30;;;;;;4122413;28;20505;-83
2021/03/29 03:42:33;;;;;;;12.20;6.63;;;10.60;98.30;;;;;;4117731;28;20580;-83
2021/03/29 03:44:36;;;;;;;12.17;7.20;;;10.60;98.30;;;;;;4123171;28;20495;-83
2021/03/29 03:46:40;;;;;;;13.53;6.07;;;10.60;98.30;;;;;;4118920;28;20495;-83
2021/03/29 03:48:43;;;;;;;8.27;6.13;;;10.60;98.30;;;;;;4125681;28;20510;-83
2021/03/29 03:50:48;;;;;;;17.03;6.13;;;10.60;98.30;;;;;;4121771;28;21003;-83
2021/03/29 03:52:51;;;;;;;14.50;6.80;;;10.60;98.30;;;;;;4121227;28;20489;-83
2021/03/29 03:54:54;;;;;;;9.70;5.83;;;10.60;98.30;;;;;;4118315;28;20566;-84
2021/03/29 03:56:56;;;;;;;6.83;5.77;;;10.60;98.30;;;;;;4117661;28;20490;-83
2021/03/29 03:58:58;;;;;;;12.17;6.10;;;10.60;98.30;;;;;;4115737;28;20490;-83
2021/03/29 04:01:01;;;;;;;11.47;6.80;;;10.60;98.30;;;;;;4121043;28;20495;-83
2021/03/29 04:03:03;;;;;;;10.90;6.03;;;10.60;98.30;;;;;;4115185;28;21231;-84
2021/03/29 04:05:12;;;;;;;10.60;6.27;;;10.60;98.30;;;;;;4119937;28;20511;-83
2021/03/29 04:07:33;;;;;;;8.03;5.97;;;10.60;98.30;;;;;;4115757;28;20495;-83
2021/03/29 04:09:41;;;;;;;11.23;5.80;;;10.60;98.30;;;;;;4123100;28;20535;-83
2021/03/29 04:11:49;;;;;;;12.30;6.60;;;10.60;98.30;;;;;;4117413;28;20989;-83
2021/03/29 04:14:00;;;;;;;8.60;6.43;;;10.60;98.30;;;;;;4122399;28;20483;-83
2021/03/29 04:16:04;;;;;;;9.70;6.70;;;10.60;98.30;;;;;;4120900;28;20499;-83
2021/03/29 04:18:07;;;;;;;12.13;6.60;;;10.60;98.30;;;;;;4118911;28;20519;-82
2021/03/29 04:20:11;;;;;;;12.60;6.97;;;10.60;98.30;;;;;;4114742;28;20904;-82
2021/03/29 04:22:13;;;;;;;13.50;7.57;;;10.60;98.30;;;;;;4121322;28;20539;-83
2021/03/29 04:24:15;;;;;;;8.53;6.80;;;10.50;98.30;;;;;;4119813;28;20491;-82
2021/03/29 04:26:17;;;;;;;16.83;8.30;;;10.40;98.30;;;;;;4121512;28;20525;-83
2021/03/29 04:28:20;;;;;;;18.67;6.90;;;10.40;98.30;;;;;;4118866;28;21109;-83
2021/03/29 04:30:23;;;;;;;12.67;6.33;;;10.40;98.30;;;;;;4124433;28;20494;-83
2021/03/29 04:32:25;;;;;;;12.30;7.00;;;10.40;98.30;;;;;;4117021;28;20498;-83
2021/03/29 04:34:27;;;;;;;10.73;6.70;;;10.40;98.30;;;;;;4116216;28;20499;-82
2021/03/29 04:36:29;;;;;;;8.73;6.73;;;10.40;98.30;;;;;;4117098;28;20506;-83
2021/03/29 04:38:31;;;;;;;8.40;6.53;;;10.40;98.30;;;;;;4118227;28;21135;-82
2021/03/29 04:40:33;;;;;;;12.10;7.50;;;10.40;98.30;;;;;;4111542;28;20487;-84
2021/03/29 04:42:35;;;;;;;7.73;6.47;;;10.30;98.30;;;;;;4123440;28;20544;-83
2021/03/29 04:44:38;;;;;;;13.20;6.70;;;10.30;98.30;;;;;;4120894;28;20484;-83
2021/03/29 04:46:41;;;;;;;13.30;6.90;;;10.30;98.30;;;;;;4121981;28;20976;-83
2021/03/29 04:48:43;;;;;;;12.00;7.40;;;10.30;98.30;;;;;;4121300;28;20479;-84
2021/03/29 04:50:45;;;;;;;13.17;6.60;;;10.30;98.30;;;;;;4120451;28;20570;-84
2021/03/29 04:52:47;;;;;;;13.43;7.07;;;10.30;98.30;;;;;;4122879;28;20511;-83
2021/03/29 04:54:49;;;;;;;9.77;6.20;;;10.30;98.30;;;;;;4142617;22;20464;-83
2021/03/29 04:56:50;;;;;;;10.20;6.83;;;10.30;98.30;;;;;;4160488;28;20476;-84
2021/03/29 04:58:52;;;;;;;11.17;7.27;;;10.30;98.30;;;;;;4159488;28;20492;-84
2021/03/29 05:00:55;;;;;;;9.07;6.00;;;10.30;98.30;;;;;;4161746;28;20488;-83
2021/03/29 05:02:57;;;;;;;8.83;5.70;;;10.30;98.30;;;;;;4157830;28;20504;-83
2021/03/29 05:04:59;;;;;;;11.83;6.30;;;10.30;98.30;;;;;;4154450;28;20524;-83
2021/03/29 05:07:00;;;;;;;9.93;6.70;;;10.30;98.30;;;;;;4146071;28;20584;-84
2021/03/29 05:09:03;;;;;;;10.77;7.40;;;10.30;98.30;;;;;;4148428;28;20577;-83
2021/03/29 05:11:07;;;;;;;10.73;6.70;;;10.30;98.30;;;;;;4139965;28;20486;-84
2021/03/29 05:13:09;;;;;;;10.87;6.90;;;10.40;98.30;;;;;;4147996;28;20937;-83
2021/03/29 05:15:12;;;;;;;6.87;5.70;;;10.40;98.30;;;;;;4147369;28;20482;-83
2021/03/29 05:17:15;;;;;;;11.13;7.00;;;10.30;98.30;;;;;;4147307;28;20533;-83
2021/03/29 05:19:17;;;;;;;11.33;6.50;;;10.40;98.30;;;;;;4146660;28;20494;-83
2021/03/29 05:21:19;;;;;;;10.20;6.10;;;10.40;98.30;;;;;;4147621;28;20965;-84
2021/03/29 05:23:20;;;;;;;9.43;5.80;;;10.40;98.30;;;;;;4144753;28;20555;-84
2021/03/29 05:25:23;;;;;;;13.13;5.70;;;10.40;98.30;;;;;;4144447;28;20891;-83
2021/03/29 05:27:24;;;;;;;12.27;6.10;;;10.40;98.30;;;;;;4147973;28;20886;-83
2021/03/29 05:29:28;;;;;;;11.73;6.70;;;10.40;98.30;;;;;;4141362;28;20509;-82
2021/03/29 05:31:35;;;;;;;10.30;6.50;;;10.40;98.30;;;;;;4147748;28;20486;-82
2021/03/29 05:33:38;;;;;;;9.70;5.83;;;10.40;98.30;;;;;;4146861;28;20497;-82
2021/03/29 05:35:40;;;;;;;12.03;6.07;;;10.50;98.30;;;;;;4146915;28;20519;-83
2021/03/29 05:37:42;;;;;;;10.50;6.27;;;10.50;98.30;;;;;;4146455;28;21058;-83
2021/03/29 05:39:45;;;;;;;12.33;5.97;;;10.50;98.30;;;;;;4143109;28;20486;-83
2021/03/29 05:41:50;;;;;;;11.63;6.33;;;10.50;98.30;;;;;;4138975;28;20509;-82
2021/03/29 05:43:53;;;;;;;9.17;5.70;;;10.50;98.30;;;;;;4147187;28;20547;-83
2021/03/29 05:45:55;;;;;;;9.87;5.63;;;10.50;98.30;;;;;;4145302;28;20502;-83
2021/03/29 05:47:57;;;;;;;9.00;5.57;;;10.50;98.30;;;;;;4140643;28;20596;-84
2021/03/29 05:50:02;;;;;;;11.63;5.83;;;10.50;98.30;;;;;;4147835;28;20494;-82
2021/03/29 05:52:04;;;;;;;14.60;6.23;;;10.50;98.30;;;;;;4148480;28;20490;-83
2021/03/29 05:54:08;;;;;;;10.10;5.60;;;10.50;98.30;;;;;;4147665;28;21403;-83
2021/03/29 05:56:12;;;;;;;10.97;5.80;;;10.50;98.30;;;;;;4148147;28;20501;-83
2021/03/29 05:58:34;;;;;;;8.57;5.60;;;10.60;98.30;;;;;;4142003;28;20490;-83
2021/03/29 06:00:39;;;;;;;14.83;6.47;;;10.60;98.30;;;;;;4146405;28;20513;-83
2021/03/29 06:02:41;;;;;;;16.03;5.90;;;10.60;98.30;;;;;;4148068;28;20498;-83
2021/03/29 06:04:45;;;;;;;10.17;6.33;;;10.70;98.30;;;;;;4147404;28;20497;-83
2021/03/29 06:06:48;;;;;;;9.00;4.87;;;10.70;98.30;;;;;;4148282;28;20490;-84
2021/03/29 06:08:52;;;;;;;12.20;5.83;;;10.70;98.30;;;;;;4146560;28;20501;-83
2021/03/29 06:10:55;;;;;;;10.30;4.90;;;10.70;98.30;;;;;;4147691;28;20500;-83
2021/03/29 06:12:57;;;;;;;6.63;5.20;;;10.70;98.30;;;;;;4142847;28;20494;-82
2021/03/29 06:15:01;;;;;;;9.27;5.90;;;10.70;98.30;;;;;;4147416;28;20498;-82
2021/03/29 06:17:04;;;;;;;13.87;6.40;;;10.70;98.30;;;;;;4146885;28;20996;-82
2021/03/29 06:19:06;;;;;;;9.57;5.80;;;10.70;98.30;;;;;;4141796;28;20501;-82
2021/03/29 06:21:12;;;;;;;10.80;5.20;;;10.70;98.30;;;;;;4146378;28;20548;-82
2021/03/29 06:23:15;;;;;;;7.60;4.90;;;10.70;98.30;;;;;;4145014;28;20505;-81
2021/03/29 06:25:18;;;;;;;11.33;6.00;;;10.70;98.30;;;;;;4143250;28;20497;-81
2021/03/29 06:27:21;;;;;;;12.20;5.57;;;10.70;98.30;;;;;;4145122;28;20495;-81
2021/03/29 06:29:23;;;;;;;13.70;5.17;;;10.70;98.30;;;;;;4144240;28;20490;-81
2021/03/29 06:31:30;;;;;;;12.17;5.70;;;10.70;98.30;;;;;;4148462;28;20548;-81
2021/03/29 06:33:44;;;;;;;12.30;5.33;;;10.70;98.30;;;;;;4148210;28;20492;-81
2021/03/29 06:35:47;;;;;;;7.07;5.43;;;10.80;98.30;;;;;;4145810;28;20489;-81
2021/03/29 06:37:49;;;;;;;12.30;6.47;;;10.80;98.30;;;;;;4148140;28;21330;-81
2021/03/29 06:39:52;;;;;;;7.90;5.73;;;10.80;98.30;;;;;;4148452;28;20489;-81
2021/03/29 06:41:55;;;;;;;7.53;5.43;;;10.90;98.30;;;;;;4148725;28;20596;-81
2021/03/29 06:43:57;;;;;;;12.20;6.57;;;10.90;98.30;;;;;;4147519;28;20540;-81
2021/03/29 06:46:01;;;;;;;15.90;5.47;;;10.90;98.30;;;;;;4148823;28;20565;-81
2021/03/29 06:48:04;;;;;;;8.97;5.97;;;10.90;98.30;;;;;;4140641;28;21044;-81
2021/03/29 06:50:07;;;;;;;11.63;4.93;;;10.90;98.30;;;;;;4149097;28;20486;-81
2021/03/29 06:52:28;;;;;;;10.40;5.93;;;11.00;98.30;;;;;;4148032;28;20498;-81
2021/03/29 06:54:30;;;;;;;9.17;4.70;;;11.10;98.30;;;;;;4146692;28;20533;-81
2021/03/29 06:56:34;;;;;;;13.57;5.73;;;11.10;98.30;;;;;;4148648;28;21450;-81
2021/03/29 06:58:36;;;;;;;8.87;5.27;;;11.10;98.30;;;;;;4148245;28;20494;-81
2021/03/29 07:00:39;;;;;;;11.40;7.27;;;11.20;98.30;;;;;;4147334;28;20490;-81
2021/03/29 07:02:43;;;;;;;10.70;5.10;;;11.20;98.30;;;;;;4147779;28;20612;-81
2021/03/29 07:04:45;;;;;;;8.73;5.20;;;11.20;98.30;;;;;;4146657;28;20497;-81
2021/03/29 07:06:47;;;;;;;12.03;7.23;;;11.30;98.30;;;;;;4147202;28;20501;-81
2021/03/29 07:08:49;;;;;;;16.93;5.73;;;11.30;98.30;;;;;;4147141;28;20513;-81
2021/03/29 07:10:53;;;;;;;10.43;5.97;;;11.30;98.30;;;;;;4148010;28;20497;-81
2021/03/29 07:12:57;;;;;;;9.03;5.80;;;11.30;98.30;;;;;;4147556;28;20837;-81
2021/03/29 07:15:00;;;;;;;9.90;5.73;;;11.40;98.30;;;;;;4147352;28;20485;-81
2021/03/29 07:17:02;;;;;;;11.00;6.43;;;11.40;98.30;;;;;;4142938;28;20502;-81
2021/03/29 07:19:05;;;;;;;8.13;5.13;;;11.40;98.30;;;;;;4146460;28;20489;-81
2021/03/29 07:21:10;;;;;;;9.17;5.40;;;11.50;98.30;;;;;;4147962;28;20837;-81
2021/03/29 07:23:12;;;;;;;11.43;5.40;;;11.50;98.30;;;;;;4147127;28;20498;-81
2021/03/29 07:25:15;;;;;;;9.93;5.10;;;11.50;98.30;;;;;;4148553;28;20883;-81
2021/03/29 07:27:18;;;;;;;10.93;4.77;;;11.50;98.30;;;;;;4147912;28;20885;-82
2021/03/29 07:29:24;;;;;;;8.67;6.87;;;11.40;98.30;;;;;;4148026;28;20874;-81
2021/03/29 07:31:40;;;;;;;9.30;5.13;;;11.40;98.30;;;;;;4148781;28;20498;-81
2021/03/29 07:33:51;;;;;;;10.30;5.23;;;11.50;98.30;;;;;;4148081;28;20525;-81
2021/03/29 07:35:55;;;;;;;14.43;6.30;;;11.50;98.30;;;;;;4146804;28;20552;-81
2021/03/29 07:37:58;;;;;;;10.27;5.30;;;11.50;98.30;;;;;;4148394;28;20569;-81
2021/03/29 07:40:01;;;;;;;8.23;5.43;;;11.50;98.30;;;;;;4149538;28;20575;-80
2021/03/29 07:42:48;;;;;;;10.53;5.50;;;11.60;98.30;;;;;;4147606;28;20666;-81
2021/03/29 07:44:54;;;;;;;8.40;4.83;;;11.60;98.30;;;;;;4125412;28;20505;-81
2021/03/29 07:46:57;;;;;;;12.10;5.33;;;11.60;98.30;;;;;;4149078;28;20497;-81
2021/03/29 07:48:59;;;;;;;13.10;6.87;;;11.70;98.30;;;;;;4148011;28;20869;-81
2021/03/29 07:51:01;;;;;;;9.87;5.00;;;11.70;98.30;;;;;;4148601;28;20500;-81
2021/03/29 07:53:05;;;;;;;8.73;5.27;;;11.70;98.30;;;;;;4148145;28;20556;-81
2021/03/29 07:55:18;;;;;;;11.60;5.10;;;11.80;98.30;;;;;;4145834;28;20494;-81
2021/03/29 07:58:08;;;;;;;9.77;5.77;;;11.80;98.30;;;;;;4147585;28;20510;-81
2021/03/29 08:00:28;;;;;;;11.60;7.17;;;11.80;98.30;;;;;;4109444;28;20503;-81
2021/03/29 08:02:33;;;;;;;15.23;7.00;;;11.80;98.30;;;;;;4113469;28;20499;-82
2021/03/29 08:05:02;;;;;;;10.17;5.73;;;11.90;98.30;;;;;;4116778;28;20575;-81
2021/03/29 08:07:04;;;;;;;7.37;5.10;;;12.20;98.30;;;;;;4148243;28;20517;-82
2021/03/29 08:09:08;;;;;;;9.53;5.70;;;12.20;98.30;;;;;;4147908;28;20496;-81
2021/03/29 08:11:13;;;;;;;6.43;5.17;;;12.20;98.30;;;;;;4147526;28;20498;-82
2021/03/29 08:13:35;;;;;;;7.97;4.63;;;12.20;98.30;;;;;;4148419;28;20481;-81
2021/03/29 08:16:02;;;;;;;13.20;8.67;;;12.10;98.30;;;;;;4149611;28;20493;-81
2021/03/29 08:18:04;;;;;;;8.77;5.00;;;12.10;98.30;;;;;;4145128;28;20593;-81
2021/03/29 08:20:12;;;;;;;12.80;6.20;;;12.10;98.30;;;;;;4149984;28;20490;-82
2021/03/29 08:22:14;;;;;;;8.30;4.70;;;12.00;98.30;;;;;;4149872;28;20508;-81
2021/03/29 08:24:18;;;;;;;9.67;4.70;;;12.10;98.30;;;;;;4150949;28;20498;-81
2021/03/29 08:26:22;;;;;;;10.80;5.10;;;12.00;98.30;;;;;;4150668;28;20497;-81
2021/03/29 08:28:24;;;;;;;13.10;6.20;;;12.00;98.30;;;;;;4149873;28;20843;-81
2021/03/29 08:30:38;;;;;;;10.67;5.33;;;12.10;98.30;;;;;;4150289;28;20486;-82
2021/03/29 08:32:41;;;;;;;9.33;5.00;;;12.10;98.30;;;;;;4151050;28;20490;-81
2021/03/29 08:34:49;;;;;;;11.03;5.77;;;12.20;98.30;;;;;;4150912;28;20490;-82
2021/03/29 08:36:53;;;;;;;8.40;4.90;;;12.20;98.30;;;;;;4148538;28;20481;-81
2021/03/29 08:38:55;;;;;;;9.83;5.77;;;12.20;98.30;;;;;;4150790;28;20846;-81
2021/03/29 08:40:57;;;;;;;10.43;5.43;;;12.30;98.30;;;;;;4151537;28;20489;-81
2021/03/29 08:43:03;;;;;;;9.47;5.43;;;12.30;98.30;;;;;;4151449;28;20501;-82
2021/03/29 08:45:09;;;;;;;10.90;5.80;;;12.30;98.30;;;;;;4151510;28;20496;-82
2021/03/29 08:47:13;;;;;;;9.13;5.83;;;12.40;98.30;;;;;;4150919;28;20516;-81
2021/03/29 08:49:16;;;;;;;9.47;5.63;;;12.40;98.30;;;;;;4148709;28;20500;-81
2021/03/29 08:51:21;;;;;;;15.30;6.03;;;12.30;98.30;;;;;;4151785;28;21006;-81
2021/03/29 08:53:23;;;;;;;8.23;4.90;;;12.40;98.30;;;;;;4151409;28;20496;-81
2021/03/29 08:55:27;;;;;;;8.87;6.10;;;12.50;98.30;;;;;;4150502;28;20508;-81
2021/03/29 08:57:31;;;;;;;13.57;5.30;;;12.70;98.30;;;;;;4151243;28;20543;-81
2021/03/29 08:59:34;;;;;;;6.77;5.70;;;12.90;98.30;;;;;;4149993;28;20999;-81
2021/03/29 09:01:39;;;;;;;8.50;5.60;;;13.10;98.30;;;;;;4150296;28;20490;-81
2021/03/29 09:03:41;;;;;;;13.20;5.13;;;13.20;98.30;;;;;;4150224;28;20493;-81
2021/03/29 09:05:43;;;;;;;9.17;5.90;;;13.30;98.30;;;;;;4148819;28;20507;-81
2021/03/29 09:07:48;;;;;;;13.67;5.97;;;13.30;98.30;;;;;;4150925;28;20497;-81
2021/03/29 09:09:50;;;;;;;8.93;5.60;;;13.30;98.30;;;;;;4148884;28;20494;-81
2021/03/29 09:11:52;;;;;;;10.20;5.77;;;13.20;98.30;;;;;;4150906;28;20882;-82
2021/03/29 09:13:55;;;;;;;10.93;5.40;;;13.10;98.30;;;;;;4151358;28;20856;-81
2021/03/29 09:15:57;;;;;;;9.43;5.70;;;13.00;98.30;;;;;;4148774;28;20486;-82
2021/03/29 09:18:01;;;;;;;8.83;5.00;;;13.10;98.30;;;;;;4151082;28;20585;-81
2021/03/29 09:20:04;;;;;;;7.40;5.70;;;13.10;98.30;;;;;;4149872;28;20707;-82
2021/03/29 09:22:06;;;;;;;10.67;5.90;;;13.20;98.30;;;;;;4148863;28;20485;-81
2021/03/29 09:24:18;;;;;;;10.50;6.37;;;13.20;98.30;;;;;;4150106;28;20576;-82
2021/03/29 09:26:29;;;;;;;8.20;5.50;;;13.30;98.30;;;;;;4149806;28;20998;-81
2021/03/29 09:28:34;;;;;;;12.60;6.00;;;13.20;98.30;;;;;;4148382;28;20569;-82
2021/03/29 09:30:54;;;;;;;13.40;5.90;;;13.20;98.30;;;;;;4148761;28;20500;-81
2021/03/29 09:32:56;;;;;;;13.23;6.10;;;13.10;98.30;;;;;;4150354;28;20489;-81
2021/03/29 09:34:58;;;;;;;10.47;5.40;;;13.20;98.30;;;;;;4150646;28;20851;-81
2021/03/29 09:37:00;;;;;;;12.67;5.30;;;13.30;98.30;;;;;;4147141;28;20494;-81
2021/03/29 09:39:13;;;;;;;10.10;6.13;;;13.40;98.30;;;;;;4149908;28;20805;-81
2021/03/29 09:41:16;;;;;;;7.83;5.47;;;13.60;98.30;;;;;;4149587;28;20490;-82
2021/03/29 09:43:21;;;;;;;8.63;5.13;;;13.70;98.30;;;;;;4150608;28;20509;-81
2021/03/29 09:45:25;;;;;;;8.77;5.20;;;13.60;98.30;;;;;;4149845;28;20500;-81
2021/03/29 09:47:28;;;;;;;8.70;4.80;;;13.60;98.30;;;;;;4149575;28;20999;-81
2021/03/29 09:49:30;;;;;;;10.00;5.50;;;13.80;98.30;;;;;;4148572;28;20493;-82
2021/03/29 09:51:31;;;;;;;6.53;5.30;;;13.80;98.30;;;;;;4149784;28;20508;-81
2021/03/29 09:53:34;;;;;;;10.40;5.53;;;13.80;98.30;;;;;;4149495;28;21519;-81
2021/03/29 09:55:48;;;;;;;9.20;5.90;;;13.90;98.30;;;;;;4149282;28;20524;-81
2021/03/29 09:57:50;;;;;;;9.97;5.70;;;13.80;98.30;;;;;;4149716;28;20498;-81
2021/03/29 09:59:52;;;;;;;9.40;6.63;;;13.90;98.30;;;;;;4149260;28;20489;-81
2021/03/29 10:01:54;;;;;;;6.90;5.30;;;14.00;98.30;;;;;;4147470;28;20831;-82
2021/03/29 10:03:57;;;;;;;13.27;6.40;;;14.30;98.30;;;;;;4148770;28;20883;-81
2021/03/29 10:05:59;;;;;;;8.33;5.77;;;14.40;98.30;;;;;;4148769;28;20485;-81
2021/03/29 10:08:01;;;;;;;9.30;6.07;;;14.40;98.30;;;;;;4150157;28;20850;-82
2021/03/29 10:10:05;;;;;;;7.57;5.13;;;14.60;98.30;;;;;;4145302;28;20555;-82
2021/03/29 10:12:09;;;;;;;11.30;6.10;;;14.80;98.30;;;;;;4149348;28;20490;-82
2021/03/29 10:14:11;;;;;;;7.50;5.30;;;15.10;98.30;;;;;;4148614;28;20517;-81
2021/03/29 10:16:20;;;;;;;9.50;5.53;;;15.20;98.30;;;;;;4149119;28;20989;-82
2021/03/29 10:18:42;;;;;;;7.40;5.40;;;15.10;98.30;;;;;;4145515;28;20543;-81
2021/03/29 10:20:45;;;;;;;8.57;5.70;;;14.80;98.30;;;;;;4148811;28;20494;-82
2021/03/29 10:22:47;;;;;;;8.40;5.33;;;14.60;98.30;;;;;;4148541;28;20494;-81
2021/03/29 10:25:12;;;;;;;9.27;5.90;;;14.50;98.30;;;;;;4149572;28;20568;-82
2021/03/29 10:27:15;;;;;;;7.90;5.60;;;14.70;98.30;;;;;;4148464;28;20502;-82
2021/03/29 10:29:27;;;;;;;8.23;6.20;;;14.60;98.30;;;;;;4148929;28;20494;-82
2021/03/29 10:31:31;;;;;;;8.97;6.50;;;14.90;98.30;;;;;;4150235;28;20501;-82
2021/03/29 10:33:33;;;;;;;10.93;6.10;;;15.00;98.30;;;;;;4149733;28;20586;-81
2021/03/29 10:35:36;;;;;;;10.10;6.30;;;15.00;98.30;;;;;;4148530;28;20486;-82
2021/03/29 10:37:38;;;;;;;7.80;5.37;;;15.30;98.30;;;;;;4148179;28;20891;-81
2021/03/29 10:39:40;;;;;;;9.43;6.53;;;15.50;98.30;;;;;;4146655;28;21074;-81
2021/03/29 10:41:42;;;;;;;9.67;6.23;;;15.80;98.30;;;;;;4147564;28;20492;-82
2021/03/29 10:43:45;;;;;;;10.30;6.53;;;15.90;98.30;;;;;;4147482;28;20529;-82